Time;durP1;ratioP1;P1;durP2;ratioP2;P2;SDS_P1;SDS_P2;PMS_P1;PMS_P2;Temp;Humidity;BMP_temperature;BMP_pressure;BME280_temperature;BME280_humidity;BME280_pressure;Samples;Min_cycle;Max_cycle;Signal;HPM_P1;HPM_P2
2021/12/26 00:02:24;;;;;;;38.27;16.80;;;-6.70;1.00;;;;;;5019201;28;20207;-48
2021/12/26 00:04:50;;;;;;;37.23;16.00;;;-6.70;99.90;;;;;;5020400;28;20220;-47
2021/12/26 00:07:16;;;;;;;33.33;18.30;;;-6.70;1.00;;;;;;5012223;28;20262;-47
2021/12/26 00:09:42;;;;;;;37.27;17.93;;;-6.70;1.00;;;;;;5017386;28;20450;-47
2021/12/26 00:12:09;;;;;;;40.40;19.17;;;-6.70;1.00;;;;;;5020701;28;20493;-47
2021/12/26 00:14:34;;;;;;;41.67;17.87;;;-6.70;1.00;;;;;;5019005;28;20215;-50
2021/12/26 00:17:00;;;;;;;42.00;19.20;;;-6.70;1.00;;;;;;5016811;28;20439;-47
2021/12/26 00:19:26;;;;;;;33.27;18.63;;;-6.70;1.00;;;;;;5011886;28;20199;-47
2021/12/26 00:21:51;;;;;;;38.13;18.03;;;-6.70;99.90;;;;;;5014609;28;20195;-47
2021/12/26 00:24:17;;;;;;;37.70;19.33;;;-6.70;99.90;;;;;;5031104;28;20234;-47
2021/12/26 00:26:42;;;;;;;44.20;18.27;;;-6.70;60.90;;;;;;5033427;28;20206;-47
2021/12/26 00:29:08;;;;;;;43.57;20.63;;;-6.70;7.10;;;;;;5031862;28;20515;-47
2021/12/26 00:31:33;;;;;;;39.20;18.90;;;-6.70;1.00;;;;;;5029120;28;20202;-47
2021/12/26 00:33:59;;;;;;;37.53;18.50;;;-6.70;1.00;;;;;;5014625;28;20195;-47
2021/12/26 00:36:25;;;;;;;46.00;19.90;;;-6.70;1.00;;;;;;5013283;28;20987;-47
2021/12/26 00:38:51;;;;;;;35.13;17.60;;;-6.70;1.00;;;;;;5021141;28;20229;-47
2021/12/26 00:41:17;;;;;;;35.67;17.97;;;-6.70;1.00;;;;;;5017912;28;20842;-47
2021/12/26 00:43:43;;;;;;;33.33;17.13;;;-6.70;1.00;;;;;;5013598;28;20439;-47
2021/12/26 00:46:08;;;;;;;33.53;16.30;;;-6.70;1.00;;;;;;5015239;28;20636;-47
2021/12/26 00:48:34;;;;;;;42.03;17.07;;;-6.70;99.90;;;;;;5020562;28;20179;-47
2021/12/26 00:51:00;;;;;;;31.50;15.20;;;-6.70;99.90;;;;;;5019585;28;20183;-47
2021/12/26 00:53:26;;;;;;;41.57;15.73;;;-6.70;99.90;;;;;;5012632;28;20265;-47
2021/12/26 00:55:51;;;;;;;33.80;15.20;;;-6.70;99.90;;;;;;5015581;28;24096;-47
2021/12/26 00:58:17;;;;;;;40.63;16.00;;;-6.70;1.00;;;;;;5022838;28;20196;-49
2021/12/26 01:00:49;;;;;;;35.90;16.60;;;-6.80;99.90;;;;;;5021209;28;20188;-47
2021/12/26 01:03:16;;;;;;;28.30;14.77;;;-6.80;99.90;;;;;;5032659;28;20413;-47
2021/12/26 01:05:46;;;;;;;29.87;16.77;;;-6.90;1.00;;;;;;5031898;28;20825;-47
2021/12/26 01:08:15;;;;;;;26.40;13.97;;;-6.90;1.00;;;;;;5031683;28;20880;-47
2021/12/26 01:10:51;;;;;;;26.63;14.33;;;-6.90;1.00;;;;;;5032238;28;20793;-47
2021/12/26 01:13:34;;;;;;;30.57;14.57;;;-7.00;1.00;;;;;;5031977;28;20481;-47
2021/12/26 01:16:02;;;;;;;34.47;15.20;;;-7.00;1.00;;;;;;5032246;28;20908;-47
2021/12/26 01:18:32;;;;;;;30.23;13.80;;;-7.00;1.00;;;;;;5032182;28;20922;-47
2021/12/26 01:21:09;;;;;;;26.63;14.07;;;-7.10;1.00;;;;;;5031875;28;20437;-49
2021/12/26 01:23:35;;;;;;;33.00;13.77;;;-7.00;42.10;;;;;;5032014;28;20887;-47
2021/12/26 01:26:01;;;;;;;27.43;12.40;;;-7.10;99.90;;;;;;5031830;28;20460;-47
2021/12/26 01:28:28;;;;;;;23.40;12.23;;;-7.10;99.90;;;;;;5013848;28;20222;-47
2021/12/26 01:30:57;;;;;;;25.97;12.20;;;-7.10;99.90;;;;;;5032474;28;20398;-47
2021/12/26 01:33:24;;;;;;;28.17;12.50;;;-7.10;99.90;;;;;;5031189;28;20525;-47
2021/12/26 01:35:49;;;;;;;23.60;10.43;;;-7.00;99.90;;;;;;5031938;28;20513;-47
2021/12/26 01:38:16;;;;;;;21.07;11.00;;;-7.00;1.00;;;;;;5031671;28;21077;-47
2021/12/26 01:40:47;;;;;;;17.60;9.97;;;-6.90;1.00;;;;;;5031780;28;20252;-47
2021/12/26 01:43:14;;;;;;;16.53;10.10;;;-6.90;14.10;;;;;;5031761;28;20438;-47
2021/12/26 01:45:39;;;;;;;18.77;9.90;;;-6.80;99.90;;;;;;5031748;28;20469;-47
2021/12/26 01:48:06;;;;;;;22.20;10.90;;;-6.70;99.90;;;;;;5029957;28;20440;-47
2021/12/26 01:50:34;;;;;;;16.97;9.90;;;-6.60;99.90;;;;;;5030019;28;20201;-47
2021/12/26 01:52:59;;;;;;;23.57;10.50;;;-6.50;47.80;;;;;;5031622;28;20414;-49
2021/12/26 01:55:38;;;;;;;15.87;8.53;;;-6.40;90.30;;;;;;5031235;28;20426;-47
2021/12/26 01:58:06;;;;;;;19.80;9.40;;;-6.30;6.60;;;;;;5031406;28;20624;-47
2021/12/26 02:00:33;;;;;;;19.20;8.83;;;-6.20;58.40;;;;;;5031323;28;20445;-47
2021/12/26 02:02:58;;;;;;;19.30;8.47;;;-6.20;1.00;;;;;;5030824;28;20916;-47
2021/12/26 02:05:24;;;;;;;28.60;8.73;;;-6.10;1.00;;;;;;5031177;28;20469;-47
2021/12/26 02:07:49;;;;;;;13.30;8.23;;;-6.10;1.00;;;;;;5031399;28;20195;-48
2021/12/26 02:10:15;;;;;;;14.20;8.10;;;-6.10;1.00;;;;;;5031168;28;20210;-53
2021/12/26 02:12:41;;;;;;;18.30;8.30;;;-6.20;1.00;;;;;;5031513;28;20328;-53
2021/12/26 02:15:07;;;;;;;16.10;8.13;;;-6.20;1.00;;;;;;5031298;28;20277;-54
2021/12/26 02:17:33;;;;;;;16.20;8.40;;;-6.20;1.00;;;;;;5030388;28;20509;-54
2021/12/26 02:20:17;;;;;;;12.90;7.10;;;-6.30;1.00;;;;;;5031078;28;20548;-52
2021/12/26 02:22:48;;;;;;;13.93;7.23;;;-6.30;99.90;;;;;;5031034;28;20438;-53
2021/12/26 02:25:28;;;;;;;18.60;7.30;;;-6.30;99.90;;;;;;5019347;28;20512;-52
2021/12/26 02:27:54;;;;;;;12.60;7.20;;;-6.30;99.90;;;;;;5020328;28;20507;-53
2021/12/26 02:30:21;;;;;;;13.53;8.10;;;-6.30;99.90;;;;;;5030724;28;20472;-57
2021/12/26 02:32:49;;;;;;;12.10;6.57;;;-6.30;99.90;;;;;;5014437;28;20194;-53
2021/12/26 02:35:16;;;;;;;14.97;6.93;;;-6.30;41.00;;;;;;5031333;28;20426;-53
2021/12/26 02:37:42;;;;;;;12.43;7.03;;;-6.30;1.00;;;;;;5030927;28;20417;-52
2021/12/26 02:40:09;;;;;;;15.90;6.83;;;-6.40;99.90;;;;;;5030793;28;20438;-52
2021/12/26 02:42:34;;;;;;;14.37;7.00;;;-6.40;99.90;;;;;;5031168;28;20273;-53
2021/12/26 02:45:00;;;;;;;16.50;7.40;;;-6.40;1.00;;;;;;5017697;28;20509;-53
2021/12/26 02:47:49;;;;;;;13.30;6.70;;;-6.40;99.90;;;;;;5011226;28;20202;-52
2021/12/26 02:50:24;;;;;;;11.17;6.37;;;-6.50;99.90;;;;;;5021664;28;20198;-52
2021/12/26 02:52:50;;;;;;;13.80;7.10;;;-6.50;3.80;;;;;;5024076;28;21090;-52
2021/12/26 02:55:18;;;;;;;15.40;7.83;;;-6.60;1.00;;;;;;5014841;28;20438;-53
2021/12/26 02:57:48;;;;;;;10.00;6.50;;;-6.60;1.00;;;;;;5013024;28;20441;-52
2021/12/26 03:00:19;;;;;;;20.00;7.27;;;-6.70;1.00;;;;;;5003845;28;20970;-53
2021/12/26 03:02:48;;;;;;;13.07;7.47;;;-6.80;1.00;;;;;;5013312;28;20446;-52
2021/12/26 03:05:15;;;;;;;15.60;7.20;;;-6.80;1.00;;;;;;5017958;28;20461;-53
2021/12/26 03:07:41;;;;;;;13.33;7.07;;;-6.80;1.00;;;;;;5009068;28;20936;-53
2021/12/26 03:10:11;;;;;;;14.07;6.70;;;-6.80;5.00;;;;;;5014563;28;20442;-53
2021/12/26 03:12:41;;;;;;;11.33;6.70;;;-6.90;1.00;;;;;;5021874;28;20235;-53
2021/12/26 03:15:10;;;;;;;20.93;7.93;;;-6.90;1.00;;;;;;5010270;28;20447;-54
2021/12/26 03:17:36;;;;;;;10.37;6.83;;;-6.90;3.90;;;;;;5021304;28;20474;-52
2021/12/26 03:20:10;;;;;;;12.30;7.47;;;-6.90;28.70;;;;;;5021576;28;20477;-53
2021/12/26 03:22:36;;;;;;;14.40;7.13;;;-6.90;99.90;;;;;;5015947;28;20931;-53
2021/12/26 03:25:04;;;;;;;21.87;8.80;;;-6.90;99.90;;;;;;5017430;28;20476;-53
2021/12/26 03:27:29;;;;;;;17.00;9.00;;;-6.90;99.90;;;;;;5011292;28;20195;-53
2021/12/26 03:29:55;;;;;;;18.00;8.80;;;-6.90;99.90;;;;;;5017786;28;20442;-53
2021/12/26 03:32:20;;;;;;;19.03;9.93;;;-6.90;82.40;;;;;;5016889;28;20225;-53
2021/12/26 03:34:50;;;;;;;18.20;10.17;;;-6.90;99.90;;;;;;5019079;28;20209;-53
2021/12/26 03:37:16;;;;;;;17.40;9.53;;;-6.90;99.90;;;;;;5011926;28;20226;-53
2021/12/26 03:39:43;;;;;;;22.00;10.10;;;-6.90;99.90;;;;;;5016657;28;20446;-53
2021/12/26 03:42:09;;;;;;;20.30;9.87;;;-6.90;99.90;;;;;;5015970;28;21026;-53
2021/12/26 03:44:35;;;;;;;23.17;10.67;;;-6.90;99.90;;;;;;5024943;28;20430;-53
2021/12/26 03:47:01;;;;;;;16.10;9.27;;;-6.90;99.90;;;;;;5017900;28;20515;-53
2021/12/26 03:49:27;;;;;;;17.53;9.80;;;-6.90;1.00;;;;;;5017843;28;20199;-53
2021/12/26 03:51:52;;;;;;;22.40;9.87;;;-6.90;1.00;;;;;;5022390;28;20284;-53
2021/12/26 03:54:18;;;;;;;20.70;10.20;;;-6.80;6.20;;;;;;5015382;28;20447;-53
2021/12/26 03:56:44;;;;;;;18.50;9.60;;;-6.80;1.00;;;;;;5013249;28;20262;-53
2021/12/26 03:59:09;;;;;;;17.37;9.33;;;-6.80;1.00;;;;;;5020413;28;20203;-53
2021/12/26 04:01:35;;;;;;;28.40;10.43;;;-6.80;64.30;;;;;;5012100;28;20204;-52
2021/12/26 04:04:02;;;;;;;20.10;10.20;;;-6.80;73.60;;;;;;5018054;28;20212;-53
2021/12/26 04:06:28;;;;;;;19.90;10.40;;;-6.80;99.90;;;;;;5023955;28;20293;-53
2021/12/26 04:08:53;;;;;;;19.97;10.70;;;-6.80;99.90;;;;;;5007294;28;20441;-53
2021/12/26 04:11:19;;;;;;;20.70;9.93;;;-6.70;99.90;;;;;;5012674;28;20571;-52
2021/12/26 04:13:45;;;;;;;15.90;9.13;;;-6.90;1.00;;;;;;5020859;28;20205;-53
2021/12/26 04:16:10;;;;;;;16.40;8.63;;;-6.90;1.00;;;;;;5019074;28;20203;-53
2021/12/26 04:18:36;;;;;;;14.27;9.03;;;-7.00;1.00;;;;;;5023019;28;20192;-53
2021/12/26 04:21:02;;;;;;;17.10;8.40;;;-7.00;1.00;;;;;;5019408;28;20198;-53
2021/12/26 04:23:28;;;;;;;16.47;8.80;;;-7.00;1.00;;;;;;5019069;28;20579;-53
2021/12/26 04:25:53;;;;;;;17.13;8.63;;;-7.00;99.90;;;;;;5019451;28;20872;-53
2021/12/26 04:28:19;;;;;;;15.80;8.33;;;-6.90;99.90;;;;;;5032330;28;20194;-52
2021/12/26 04:30:46;;;;;;;18.40;10.00;;;-6.90;99.90;;;;;;5031827;28;20198;-52
2021/12/26 04:33:12;;;;;;;16.90;8.70;;;-6.90;21.80;;;;;;5030637;28;20453;-53
2021/12/26 04:35:38;;;;;;;17.63;8.87;;;-6.90;99.90;;;;;;5032534;28;20530;-53
2021/12/26 04:38:03;;;;;;;19.63;10.00;;;-6.90;99.90;;;;;;5024308;28;20609;-52
2021/12/26 04:40:30;;;;;;;20.23;9.43;;;-6.80;99.90;;;;;;5012383;28;20418;-53
2021/12/26 04:42:55;;;;;;;19.97;8.80;;;-6.80;99.90;;;;;;5024695;28;20195;-53
2021/12/26 04:45:21;;;;;;;18.93;9.60;;;-6.90;1.00;;;;;;5014493;28;20466;-53
2021/12/26 04:47:49;;;;;;;16.80;8.97;;;-6.90;1.00;;;;;;5017406;28;20192;-53
2021/12/26 04:50:19;;;;;;;19.60;10.10;;;-6.90;99.90;;;;;;5013909;28;20198;-53
2021/12/26 04:52:45;;;;;;;21.00;10.13;;;-6.90;99.90;;;;;;5016940;28;20504;-53
2021/12/26 04:55:12;;;;;;;16.73;9.17;;;-6.90;99.90;;;;;;5023797;28;20453;-55
2021/12/26 04:57:38;;;;;;;19.53;9.47;;;-6.90;99.90;;;;;;5018100;28;20532;-53
2021/12/26 05:00:06;;;;;;;18.73;8.97;;;-6.90;99.90;;;;;;5013482;28;20593;-53
2021/12/26 05:02:35;;;;;;;14.97;8.70;;;-6.90;53.20;;;;;;5020341;28;20209;-53
2021/12/26 05:05:02;;;;;;;17.97;8.03;;;-7.00;1.00;;;;;;5021486;28;20466;-53
2021/12/26 05:07:27;;;;;;;17.63;8.00;;;-7.00;1.00;;;;;;5012603;28;20446;-53
2021/12/26 05:09:53;;;;;;;22.43;8.83;;;-7.00;1.00;;;;;;5020613;28;20435;-52
2021/12/26 05:12:18;;;;;;;13.00;7.80;;;-7.00;19.80;;;;;;5020153;28;20314;-53
2021/12/26 05:14:44;;;;;;;12.03;6.90;;;-7.10;7.80;;;;;;5013350;28;20628;-53
2021/12/26 05:17:09;;;;;;;12.70;6.70;;;-7.10;99.90;;;;;;5012128;28;20200;-53
2021/12/26 05:19:35;;;;;;;16.50;6.90;;;-7.10;99.90;;;;;;5016941;28;20195;-53
2021/12/26 05:22:00;;;;;;;12.43;5.93;;;-7.10;99.90;;;;;;5017714;28;20203;-48
2021/12/26 05:24:26;;;;;;;9.70;5.70;;;-7.10;99.90;;;;;;5024159;28;20270;-47
2021/12/26 05:26:51;;;;;;;14.47;6.93;;;-7.20;45.30;;;;;;5022404;28;20705;-47
2021/12/26 05:29:17;;;;;;;10.57;5.90;;;-7.20;1.00;;;;;;5015579;28;20191;-47
2021/12/26 05:31:43;;;;;;;8.70;5.17;;;-7.20;90.00;;;;;;5028022;28;20202;-47
2021/12/26 05:34:08;;;;;;;15.07;5.70;;;-7.20;99.90;;;;;;5012323;28;20656;-47
2021/12/26 05:36:34;;;;;;;10.53;6.00;;;-7.20;99.90;;;;;;5030162;28;20222;-50
2021/12/26 05:38:59;;;;;;;8.53;5.30;;;-7.20;99.90;;;;;;5031355;28;20191;-47
2021/12/26 05:41:25;;;;;;;14.80;6.23;;;-7.20;99.90;;;;;;5031155;28;20190;-47
2021/12/26 05:43:50;;;;;;;7.90;5.50;;;-7.20;99.90;;;;;;5016457;28;20196;-47
2021/12/26 05:46:16;;;;;;;13.17;6.13;;;-7.20;1.00;;;;;;5028934;28;20217;-47
2021/12/26 05:48:41;;;;;;;10.90;6.03;;;-7.20;1.00;;;;;;5019308;28;20195;-47
2021/12/26 05:51:07;;;;;;;19.30;7.43;;;-7.30;1.00;;;;;;5012666;28;20823;-47
2021/12/26 05:53:32;;;;;;;15.30;6.87;;;-7.30;99.90;;;;;;5017878;28;20199;-47
2021/12/26 05:55:58;;;;;;;13.67;6.47;;;-7.20;1.00;;;;;;5026880;28;20309;-47
2021/12/26 05:58:24;;;;;;;14.20;6.07;;;-7.20;1.00;;;;;;5022223;28;20201;-47
2021/12/26 06:00:50;;;;;;;16.90;6.90;;;-7.20;1.00;;;;;;5031436;28;20421;-47
2021/12/26 06:03:16;;;;;;;13.23;7.20;;;-7.20;1.00;;;;;;5028851;28;20210;-47
2021/12/26 06:05:41;;;;;;;21.50;7.60;;;-7.10;1.00;;;;;;5031010;28;20253;-56
2021/12/26 06:08:07;;;;;;;22.70;8.77;;;-7.10;1.00;;;;;;5026692;28;20550;-47
2021/12/26 06:10:32;;;;;;;14.53;7.10;;;-7.10;99.90;;;;;;5030871;28;20541;-47
2021/12/26 06:12:58;;;;;;;17.90;7.83;;;-7.10;99.90;;;;;;5026525;28;20227;-47
2021/12/26 06:15:24;;;;;;;15.53;7.47;;;-7.10;99.90;;;;;;5030944;28;20257;-48
2021/12/26 06:17:49;;;;;;;12.40;6.13;;;-7.10;1.00;;;;;;5019739;28;20196;-47
2021/12/26 06:20:15;;;;;;;13.30;6.03;;;-7.20;1.00;;;;;;5011413;28;20514;-47
2021/12/26 06:22:43;;;;;;;9.37;6.10;;;-7.20;1.00;;;;;;5018374;28;20672;-48
2021/12/26 06:25:09;;;;;;;10.67;5.80;;;-7.20;1.00;;;;;;5001344;28;20302;-47
2021/12/26 06:27:36;;;;;;;10.50;5.23;;;-7.10;13.70;;;;;;5029181;28;20437;-47
2021/12/26 06:30:05;;;;;;;9.53;4.97;;;-7.00;1.00;;;;;;5031143;28;20406;-47
2021/12/26 06:32:31;;;;;;;8.33;4.90;;;-7.00;1.00;;;;;;5030079;28;20437;-47
2021/12/26 06:34:57;;;;;;;11.10;5.30;;;-7.00;1.00;;;;;;5030689;28;20464;-48
2021/12/26 06:37:22;;;;;;;8.77;5.10;;;-7.00;1.00;;;;;;5024904;28;20808;-47
2021/12/26 06:39:48;;;;;;;7.87;4.80;;;-7.10;99.90;;;;;;5017404;28;20200;-48
2021/12/26 06:42:14;;;;;;;10.87;5.23;;;-7.10;99.90;;;;;;5026191;28;20191;-47
2021/12/26 06:44:40;;;;;;;11.30;5.50;;;-7.10;99.90;;;;;;5030482;28;20175;-47
2021/12/26 06:47:06;;;;;;;8.47;5.20;;;-7.10;99.90;;;;;;5019939;28;20258;-49
2021/12/26 06:49:32;;;;;;;10.23;4.40;;;-7.10;99.90;;;;;;5028362;28;20435;-47
2021/12/26 06:51:57;;;;;;;11.90;5.50;;;-7.20;99.90;;;;;;5008791;28;20433;-47
2021/12/26 06:54:23;;;;;;;9.70;4.93;;;-7.20;99.90;;;;;;5030524;28;20175;-47
2021/12/26 06:56:49;;;;;;;16.43;6.00;;;-7.20;99.90;;;;;;5026583;28;20195;-48
2021/12/26 06:59:15;;;;;;;8.67;5.27;;;-7.20;99.90;;;;;;5023560;28;20199;-47
2021/12/26 07:01:41;;;;;;;12.73;5.63;;;-7.20;99.90;;;;;;5028827;28;20715;-47
2021/12/26 07:04:06;;;;;;;11.13;5.77;;;-7.20;99.90;;;;;;5032378;28;20600;-47
2021/12/26 07:06:32;;;;;;;13.40;5.97;;;-7.20;99.90;;;;;;5030143;28;20211;-48
2021/12/26 07:08:57;;;;;;;12.60;6.10;;;-7.20;1.00;;;;;;5034286;28;20256;-47
2021/12/26 07:11:23;;;;;;;12.10;5.80;;;-7.10;1.00;;;;;;5031687;28;20660;-48
2021/12/26 07:13:49;;;;;;;14.93;5.40;;;-7.20;99.90;;;;;;5020810;28;20199;-48
2021/12/26 07:16:14;;;;;;;11.33;6.30;;;-7.20;99.90;;;;;;5030868;28;20531;-47
2021/12/26 07:18:40;;;;;;;11.57;6.13;;;-7.20;99.90;;;;;;5016435;28;20214;-47
2021/12/26 07:21:05;;;;;;;15.13;6.90;;;-7.30;99.90;;;;;;5014645;28;20206;-47
2021/12/26 07:23:31;;;;;;;11.13;6.30;;;-7.20;1.00;;;;;;5018406;28;20784;-47
2021/12/26 07:25:56;;;;;;;18.73;7.80;;;-7.20;1.00;;;;;;5023890;28;20624;-47
2021/12/26 07:28:22;;;;;;;15.20;7.00;;;-7.20;1.00;;;;;;5024729;28;20214;-48
2021/12/26 07:30:48;;;;;;;19.40;6.97;;;-7.20;1.00;;;;;;5020344;28;20219;-47
2021/12/26 07:33:13;;;;;;;16.03;6.93;;;-7.20;99.90;;;;;;5018536;28;22428;-47
2021/12/26 07:35:39;;;;;;;14.23;6.20;;;-7.20;99.90;;;;;;5020295;28;20210;-47
2021/12/26 07:38:05;;;;;;;11.77;5.70;;;-7.20;99.90;;;;;;5018479;28;20238;-48
2021/12/26 07:40:30;;;;;;;13.57;6.40;;;-7.20;99.90;;;;;;5028612;28;20207;-47
2021/12/26 07:42:56;;;;;;;20.73;5.87;;;-7.20;99.90;;;;;;5033961;28;20195;-48
2021/12/26 07:45:21;;;;;;;10.50;5.73;;;-7.10;99.90;;;;;;5024886;28;20260;-47
2021/12/26 07:47:47;;;;;;;16.27;5.23;;;-7.10;99.90;;;;;;5033900;28;20187;-47
2021/12/26 07:50:12;;;;;;;13.30;5.40;;;-7.00;96.70;;;;;;5026198;28;20971;-47
2021/12/26 07:52:42;;;;;;;9.80;5.60;;;-7.00;1.00;;;;;;5015843;28;20194;-47
2021/12/26 07:55:13;;;;;;;15.77;6.90;;;-6.90;99.90;;;;;;5029719;28;20191;-47
2021/12/26 07:57:44;;;;;;;8.00;5.37;;;-6.90;99.90;;;;;;5027963;28;20473;-47
2021/12/26 08:00:10;;;;;;;11.40;5.63;;;-6.80;99.90;;;;;;5033251;28;20945;-47
2021/12/26 08:02:37;;;;;;;10.10;5.90;;;-6.80;63.20;;;;;;5033351;28;20434;-48
2021/12/26 08:05:02;;;;;;;14.67;5.83;;;-6.80;1.00;;;;;;5021805;28;20932;-47
2021/12/26 08:07:28;;;;;;;10.47;5.83;;;-6.80;1.00;;;;;;5030359;28;20456;-47
2021/12/26 08:09:53;;;;;;;10.27;5.10;;;-6.70;1.00;;;;;;5025423;28;20219;-47
2021/12/26 08:12:19;;;;;;;9.87;5.40;;;-6.70;1.00;;;;;;5032519;28;20226;-47
2021/12/26 08:14:44;;;;;;;10.10;5.33;;;-6.80;1.00;;;;;;5029772;28;20188;-48
2021/12/26 08:17:10;;;;;;;9.87;5.80;;;-6.80;1.00;;;;;;5029279;28;20553;-50
2021/12/26 08:19:36;;;;;;;8.87;5.70;;;-6.70;99.90;;;;;;5020705;28;20230;-47
2021/12/26 08:22:01;;;;;;;10.53;5.80;;;-6.70;99.90;;;;;;5029015;28;20314;-47
2021/12/26 08:24:27;;;;;;;11.43;6.30;;;-6.70;99.90;;;;;;5032917;28;20202;-47
2021/12/26 08:26:54;;;;;;;13.20;6.33;;;-6.60;99.90;;;;;;5028372;28;20202;-47
2021/12/26 08:29:22;;;;;;;13.30;6.60;;;-6.40;99.90;;;;;;5032606;28;20179;-52
2021/12/26 08:31:48;;;;;;;13.00;6.27;;;-6.40;1.00;;;;;;5031125;28;20490;-53
2021/12/26 08:34:19;;;;;;;10.20;5.90;;;-6.40;1.00;;;;;;5032773;28;20509;-52
2021/12/26 08:36:47;;;;;;;10.90;5.60;;;-6.40;1.00;;;;;;5020091;28;20484;-52
2021/12/26 08:39:12;;;;;;;11.50;5.97;;;-6.40;1.00;;;;;;5032198;28;20434;-53
2021/12/26 08:41:38;;;;;;;9.13;6.10;;;-6.30;1.00;;;;;;5030037;28;20438;-52
2021/12/26 08:44:03;;;;;;;12.80;5.60;;;-6.30;1.00;;;;;;5031088;28;20281;-53
2021/12/26 08:46:29;;;;;;;9.93;5.93;;;-6.30;1.00;;;;;;5029130;28;20229;-47
2021/12/26 08:48:55;;;;;;;11.90;6.37;;;-6.30;1.00;;;;;;5031709;28;20191;-47
2021/12/26 08:51:20;;;;;;;14.83;7.00;;;-6.30;1.00;;;;;;5031068;28;20240;-47
2021/12/26 08:53:46;;;;;;;14.53;6.33;;;-6.30;1.00;;;;;;5032070;28;20198;-47
2021/12/26 08:56:11;;;;;;;12.27;6.83;;;-6.20;1.00;;;;;;5029518;28;20195;-47
2021/12/26 08:58:37;;;;;;;12.63;6.87;;;-6.20;1.00;;;;;;5032213;28;20194;-47
2021/12/26 09:01:02;;;;;;;13.13;6.70;;;-6.10;1.00;;;;;;5029584;28;20598;-47
2021/12/26 09:03:28;;;;;;;13.20;5.73;;;-6.00;1.00;;;;;;5028994;28;20201;-47
2021/12/26 09:05:53;;;;;;;14.17;6.03;;;-6.00;1.00;;;;;;5029377;28;20215;-47
2021/12/26 09:08:20;;;;;;;12.97;6.50;;;-6.00;1.00;;;;;;5031169;28;20199;-48
2021/12/26 09:10:46;;;;;;;14.73;6.20;;;-5.90;1.00;;;;;;5036793;28;20190;-48
2021/12/26 09:13:11;;;;;;;10.73;6.13;;;-5.90;99.90;;;;;;5052123;28;20496;-47
2021/12/26 09:15:37;;;;;;;16.30;6.23;;;-5.80;99.90;;;;;;5033621;28;20195;-47
2021/12/26 09:18:03;;;;;;;13.87;6.40;;;-5.70;99.90;;;;;;5031038;28;20203;-47
2021/12/26 09:20:30;;;;;;;13.10;6.07;;;-5.70;99.90;;;;;;5027569;28;20982;-47
2021/12/26 09:22:56;;;;;;;13.03;6.03;;;-5.60;99.90;;;;;;5031544;28;20449;-47
2021/12/26 09:25:22;;;;;;;9.37;5.70;;;-5.50;99.90;;;;;;5028692;28;20966;-48
2021/12/26 09:27:47;;;;;;;13.30;7.03;;;-5.50;99.90;;;;;;5030657;28;20284;-48
2021/12/26 09:30:14;;;;;;;13.43;7.13;;;-5.50;99.90;;;;;;5025544;28;20636;-48
2021/12/26 09:32:40;;;;;;;7.03;5.40;;;-5.50;99.90;;;;;;5031595;28;20187;-48
2021/12/26 09:35:06;;;;;;;8.13;5.10;;;-5.40;99.90;;;;;;5025976;28;20429;-48
2021/12/26 09:37:32;;;;;;;11.27;6.03;;;-5.40;99.90;;;;;;5026570;28;20442;-48
2021/12/26 09:39:59;;;;;;;10.03;5.60;;;-5.40;99.90;;;;;;5039969;28;20429;-49
2021/12/26 09:42:24;;;;;;;10.27;5.50;;;-5.40;99.90;;;;;;5031001;28;20539;-48
2021/12/26 09:44:51;;;;;;;9.70;5.70;;;-5.40;99.90;;;;;;5025041;28;20442;-48
2021/12/26 09:47:16;;;;;;;9.70;6.00;;;-5.30;99.90;;;;;;5013441;28;20191;-48
2021/12/26 09:49:42;;;;;;;8.53;5.53;;;-5.20;99.90;;;;;;5019041;28;20943;-48
2021/12/26 09:52:08;;;;;;;14.20;6.23;;;-5.20;99.90;;;;;;5016559;28;20282;-48
2021/12/26 09:54:34;;;;;;;9.73;5.73;;;-5.20;99.90;;;;;;5014477;28;20211;-48
2021/12/26 09:57:00;;;;;;;12.37;6.40;;;-5.10;99.90;;;;;;5016975;28;20455;-53
2021/12/26 09:59:27;;;;;;;11.93;6.40;;;-5.10;92.80;;;;;;5022342;28;20449;-48
2021/12/26 10:02:00;;;;;;;11.20;6.17;;;-5.00;99.50;;;;;;5012113;28;20190;-48
2021/12/26 10:04:30;;;;;;;13.10;5.50;;;-4.90;89.30;;;;;;5014754;28;20470;-48
2021/12/26 10:06:58;;;;;;;13.73;6.00;;;-4.90;47.70;;;;;;5011084;28;20470;-48
2021/12/26 10:09:24;;;;;;;10.17;4.60;;;-4.90;40.80;;;;;;5010379;28;20454;-48
2021/12/26 10:11:53;;;;;;;7.37;4.20;;;-4.80;1.00;;;;;;4996468;28;20617;-48
2021/12/26 10:14:24;;;;;;;8.40;4.77;;;-4.70;1.00;;;;;;5018981;28;20484;-48
2021/12/26 10:16:59;;;;;;;7.27;4.60;;;-4.60;1.00;;;;;;5013026;28;20462;-50
2021/12/26 10:19:25;;;;;;;10.77;4.50;;;-4.50;1.00;;;;;;5014389;28;20476;-48
2021/12/26 10:21:56;;;;;;;9.73;5.50;;;-4.40;1.00;;;;;;5016194;28;20445;-48
2021/12/26 10:24:31;;;;;;;6.57;4.43;;;-4.30;1.00;;;;;;5023892;28;20504;-48
2021/12/26 10:27:04;;;;;;;9.00;5.23;;;-4.20;1.00;;;;;;5017119;28;20481;-49
2021/12/26 10:29:36;;;;;;;11.93;5.73;;;-4.10;1.00;;;;;;5020583;28;21019;-48
2021/12/26 10:32:11;;;;;;;11.13;4.87;;;-4.10;1.00;;;;;;5016762;28;20852;-48
2021/12/26 10:34:51;;;;;;;9.87;5.37;;;-3.70;1.00;;;;;;5014260;28;20452;-48
2021/12/26 10:37:31;;;;;;;9.03;5.40;;;-2.70;1.00;;;;;;5013130;28;20446;-48
2021/12/26 10:40:22;;;;;;;9.07;5.20;;;-1.30;1.00;;;;;;5020938;28;20438;-48
2021/12/26 10:42:53;;;;;;;8.23;4.60;;;-0.50;1.00;;;;;;5027815;28;20468;-49
2021/12/26 10:45:25;;;;;;;8.67;4.10;;;-0.30;1.00;;;;;;5023371;28;20520;-48
2021/12/26 10:47:54;;;;;;;7.90;4.93;;;0.10;1.00;;;;;;4999187;28;20458;-47
2021/12/26 10:50:23;;;;;;;5.83;3.90;;;0.60;1.00;;;;;;5020533;28;20553;-48
2021/12/26 10:53:03;;;;;;;6.20;4.20;;;0.90;1.00;;;;;;5021534;28;20448;-48
2021/12/26 10:55:30;;;;;;;7.13;4.20;;;1.40;1.00;;;;;;5019964;28;20849;-51
2021/12/26 10:57:56;;;;;;;5.60;4.40;;;3.00;1.00;;;;;;5017192;28;20969;-48
2021/12/26 11:00:24;;;;;;;6.83;4.20;;;4.90;1.00;;;;;;5014978;28;20457;-48
2021/12/26 11:02:53;;;;;;;6.33;4.00;;;6.80;1.00;;;;;;5017250;28;20441;-45
2021/12/26 11:05:24;;;;;;;10.93;5.60;;;7.70;1.00;;;;;;5017914;28;20457;-45
2021/12/26 11:07:58;;;;;;;7.40;4.63;;;7.30;1.00;;;;;;5025241;28;20436;-45
2021/12/26 11:10:25;;;;;;;8.80;4.90;;;7.30;1.00;;;;;;5014926;28;20439;-46
2021/12/26 11:12:57;;;;;;;5.90;4.30;;;7.40;1.00;;;;;;5025935;28;21113;-46
2021/12/26 11:15:26;;;;;;;13.20;4.90;;;6.50;1.00;;;;;;5020307;28;20998;-46
2021/12/26 11:17:56;;;;;;;7.20;4.67;;;6.10;1.00;;;;;;5026063;28;20440;-45
2021/12/26 11:20:25;;;;;;;8.40;5.20;;;5.90;1.00;;;;;;5022055;28;20438;-46
2021/12/26 11:22:51;;;;;;;5.87;4.10;;;5.80;1.00;;;;;;5018237;28;20483;-46
2021/12/26 11:25:17;;;;;;;7.67;4.20;;;5.70;1.00;;;;;;5012371;28;21237;-46
